sensor_id;sensor_type;location;lat;lon;timestamp;temperature;humidity
63966;DHT22;50151;52.030;5.350;2023-06-14T00:02:26;20.70;99.90
63966;DHT22;50151;52.030;5.350;2023-06-14T00:04:53;20.70;99.90
63966;DHT22;50151;52.030;5.350;2023-06-14T00:07:34;20.60;99.90
63966;DHT22;50151;52.030;5.350;2023-06-14T00:10:02;20.60;99.90
63966;DHT22;50151;52.030;5.350;2023-06-14T00:12:29;20.60;99.90
63966;DHT22;50151;52.030;5.350;2023-06-14T00:14:56;20.50;99.90
63966;DHT22;50151;52.030;5.350;2023-06-14T00:17:23;20.50;99.90
63966;DHT22;50151;52.030;5.350;2023-06-14T00:19:50;20.40;99.90
63966;DHT22;50151;52.030;5.350;2023-06-14T00:22:16;20.40;99.90
63966;DHT22;50151;52.030;5.350;2023-06-14T00:24:43;20.40;99.90
63966;DHT22;50151;52.030;5.350;2023-06-14T00:27:10;20.30;99.90
63966;DHT22;50151;52.030;5.350;2023-06-14T00:29:37;20.30;99.90
63966;DHT22;50151;52.030;5.350;2023-06-14T00:32:04;20.20;99.90
63966;DHT22;50151;52.030;5.350;2023-06-14T00:34:31;20.20;99.90
63966;DHT22;50151;52.030;5.350;2023-06-14T00:36:58;20.10;99.90
63966;DHT22;50151;52.030;5.350;2023-06-14T00:39:26;20.00;99.90
63966;DHT22;50151;52.030;5.350;2023-06-14T00:41:53;20.10;99.90
63966;DHT22;50151;52.030;5.350;2023-06-14T00:44:20;20.10;99.90
63966;DHT22;50151;52.030;5.350;2023-06-14T00:46:48;20.10;99.90
63966;DHT22;50151;52.030;5.350;2023-06-14T00:49:15;20.00;99.90
63966;DHT22;50151;52.030;5.350;2023-06-14T00:51:42;19.90;99.90
63966;DHT22;50151;52.030;5.350;2023-06-14T00:54:09;19.90;99.90
63966;DHT22;50151;52.030;5.350;2023-06-14T00:56:36;19.90;99.90
63966;DHT22;50151;52.030;5.350;2023-06-14T00:59:03;19.90;99.90
63966;DHT22;50151;52.030;5.350;2023-06-14T01:01:30;19.90;99.90
63966;DHT22;50151;52.030;5.350;2023-06-14T01:04:00;19.90;99.90
63966;DHT22;50151;52.030;5.350;2023-06-14T01:06:42;19.80;99.90
63966;DHT22;50151;52.030;5.350;2023-06-14T01:09:27;19.80;99.90
63966;DHT22;50151;52.030;5.350;2023-06-14T01:12:08;19.80;99.90
63966;DHT22;50151;52.030;5.350;2023-06-14T01:14:38;19.70;99.90
63966;DHT22;50151;52.030;5.350;2023-06-14T01:17:07;19.70;99.90
63966;DHT22;50151;52.030;5.350;2023-06-14T01:19:34;19.60;99.90
63966;DHT22;50151;52.030;5.350;2023-06-14T01:22:02;19.50;99.90
63966;DHT22;50151;52.030;5.350;2023-06-14T01:24:29;19.50;99.90
63966;DHT22;50151;52.030;5.350;2023-06-14T01:26:59;19.60;99.90
63966;DHT22;50151;52.030;5.350;2023-06-14T01:29:27;19.50;99.90
63966;DHT22;50151;52.030;5.350;2023-06-14T01:31:54;19.40;99.90
63966;DHT22;50151;52.030;5.350;2023-06-14T01:34:21;19.30;99.90
63966;DHT22;50151;52.030;5.350;2023-06-14T01:36:49;19.40;99.90
63966;DHT22;50151;52.030;5.350;2023-06-14T01:39:17;19.30;99.90
63966;DHT22;50151;52.030;5.350;2023-06-14T01:41:45;19.30;99.90
63966;DHT22;50151;52.030;5.350;2023-06-14T01:44:14;19.20;99.90
63966;DHT22;50151;52.030;5.350;2023-06-14T01:46:42;19.20;99.90
63966;DHT22;50151;52.030;5.350;2023-06-14T01:49:11;19.10;99.90
63966;DHT22;50151;52.030;5.350;2023-06-14T01:51:38;19.10;99.90
63966;DHT22;50151;52.030;5.350;2023-06-14T01:54:04;19.10;99.90
63966;DHT22;50151;52.030;5.350;2023-06-14T01:56:32;19.00;99.90
63966;DHT22;50151;52.030;5.350;2023-06-14T01:58:59;19.00;99.90
63966;DHT22;50151;52.030;5.350;2023-06-14T02:01:25;19.00;99.90
63966;DHT22;50151;52.030;5.350;2023-06-14T02:03:53;19.00;99.90
63966;DHT22;50151;52.030;5.350;2023-06-14T02:06:20;18.90;99.90
63966;DHT22;50151;52.030;5.350;2023-06-14T02:08:47;18.90;99.90
63966;DHT22;50151;52.030;5.350;2023-06-14T02:11:13;18.90;99.90
63966;DHT22;50151;52.030;5.350;2023-06-14T02:13:40;18.80;99.90
63966;DHT22;50151;52.030;5.350;2023-06-14T02:16:07;18.70;99.90
63966;DHT22;50151;52.030;5.350;2023-06-14T02:18:34;18.70;99.90
63966;DHT22;50151;52.030;5.350;2023-06-14T02:21:01;18.60;99.90
63966;DHT22;50151;52.030;5.350;2023-06-14T02:23:28;18.60;99.90
63966;DHT22;50151;52.030;5.350;2023-06-14T02:25:54;18.50;99.90
63966;DHT22;50151;52.030;5.350;2023-06-14T02:28:21;18.60;99.90
63966;DHT22;50151;52.030;5.350;2023-06-14T02:30:48;18.50;99.90
63966;DHT22;50151;52.030;5.350;2023-06-14T02:33:15;18.50;99.90
63966;DHT22;50151;52.030;5.350;2023-06-14T02:35:42;18.50;99.90
63966;DHT22;50151;52.030;5.350;2023-06-14T02:38:09;18.30;99.90
63966;DHT22;50151;52.030;5.350;2023-06-14T02:40:36;18.30;99.90
63966;DHT22;50151;52.030;5.350;2023-06-14T02:43:02;18.30;99.90
63966;DHT22;50151;52.030;5.350;2023-06-14T02:45:29;18.30;99.90
63966;DHT22;50151;52.030;5.350;2023-06-14T02:47:56;18.20;99.90
63966;DHT22;50151;52.030;5.350;2023-06-14T02:50:23;18.20;99.90
63966;DHT22;50151;52.030;5.350;2023-06-14T02:52:50;18.10;99.90
63966;DHT22;50151;52.030;5.350;2023-06-14T02:55:17;18.20;99.90
63966;DHT22;50151;52.030;5.350;2023-06-14T02:57:44;18.20;99.90
63966;DHT22;50151;52.030;5.350;2023-06-14T03:00:11;18.10;99.90
63966;DHT22;50151;52.030;5.350;2023-06-14T03:02:40;18.10;99.90
63966;DHT22;50151;52.030;5.350;2023-06-14T03:05:10;18.10;99.90
63966;DHT22;50151;52.030;5.350;2023-06-14T03:07:36;18.10;99.90
63966;DHT22;50151;52.030;5.350;2023-06-14T03:10:08;18.00;99.90
63966;DHT22;50151;52.030;5.350;2023-06-14T03:12:35;18.00;99.90
63966;DHT22;50151;52.030;5.350;2023-06-14T03:15:03;17.90;99.90
63966;DHT22;50151;52.030;5.350;2023-06-14T03:17:30;17.80;99.90
63966;DHT22;50151;52.030;5.350;2023-06-14T03:20:00;17.90;99.90
63966;DHT22;50151;52.030;5.350;2023-06-14T03:22:27;17.80;99.90
63966;DHT22;50151;52.030;5.350;2023-06-14T03:24:55;17.90;99.90
63966;DHT22;50151;52.030;5.350;2023-06-14T03:27:21;17.80;99.90
63966;DHT22;50151;52.030;5.350;2023-06-14T03:29:48;17.70;99.90
63966;DHT22;50151;52.030;5.350;2023-06-14T03:32:15;17.80;99.90
63966;DHT22;50151;52.030;5.350;2023-06-14T03:34:41;17.70;99.90
63966;DHT22;50151;52.030;5.350;2023-06-14T03:37:09;17.60;99.90
63966;DHT22;50151;52.030;5.350;2023-06-14T03:39:35;17.60;99.90
63966;DHT22;50151;52.030;5.350;2023-06-14T03:42:03;17.60;99.90
63966;DHT22;50151;52.030;5.350;2023-06-14T03:44:30;17.60;99.90
63966;DHT22;50151;52.030;5.350;2023-06-14T03:46:56;17.50;99.90
63966;DHT22;50151;52.030;5.350;2023-06-14T03:49:23;17.50;99.90
63966;DHT22;50151;52.030;5.350;2023-06-14T03:51:50;17.50;99.90
63966;DHT22;50151;52.030;5.350;2023-06-14T03:54:18;17.50;99.90
63966;DHT22;50151;52.030;5.350;2023-06-14T03:57:05;17.60;99.90
63966;DHT22;50151;52.030;5.350;2023-06-14T03:59:32;17.40;99.90
63966;DHT22;50151;52.030;5.350;2023-06-14T04:01:59;17.30;99.90
63966;DHT22;50151;52.030;5.350;2023-06-14T04:04:26;17.40;99.90
63966;DHT22;50151;52.030;5.350;2023-06-14T04:06:56;17.40;99.90
63966;DHT22;50151;52.030;5.350;2023-06-14T04:09:25;17.40;99.90
63966;DHT22;50151;52.030;5.350;2023-06-14T04:11:52;17.30;99.90
63966;DHT22;50151;52.030;5.350;2023-06-14T04:14:19;17.40;99.90
63966;DHT22;50151;52.030;5.350;2023-06-14T04:16:47;17.40;99.90
63966;DHT22;50151;52.030;5.350;2023-06-14T04:19:17;17.40;99.90
63966;DHT22;50151;52.030;5.350;2023-06-14T04:21:43;17.30;99.90
63966;DHT22;50151;52.030;5.350;2023-06-14T04:24:11;17.40;99.90
63966;DHT22;50151;52.030;5.350;2023-06-14T04:26:41;17.30;99.90
63966;DHT22;50151;52.030;5.350;2023-06-14T04:29:11;17.30;99.90
63966;DHT22;50151;52.030;5.350;2023-06-14T04:31:43;17.20;99.90
63966;DHT22;50151;52.030;5.350;2023-06-14T04:34:11;17.20;99.90
63966;DHT22;50151;52.030;5.350;2023-06-14T04:36:42;17.30;99.90
63966;DHT22;50151;52.030;5.350;2023-06-14T04:39:22;17.30;99.90
63966;DHT22;50151;52.030;5.350;2023-06-14T04:41:49;17.30;99.90
63966;DHT22;50151;52.030;5.350;2023-06-14T04:44:23;17.30;99.90
63966;DHT22;50151;52.030;5.350;2023-06-14T04:46:57;17.30;99.90
63966;DHT22;50151;52.030;5.350;2023-06-14T04:49:25;17.30;99.90
63966;DHT22;50151;52.030;5.350;2023-06-14T04:51:55;17.20;99.90
63966;DHT22;50151;52.030;5.350;2023-06-14T04:54:24;17.20;99.90
63966;DHT22;50151;52.030;5.350;2023-06-14T04:56:53;17.30;99.90
63966;DHT22;50151;52.030;5.350;2023-06-14T04:59:21;17.40;99.90
63966;DHT22;50151;52.030;5.350;2023-06-14T05:01:50;17.40;99.90
63966;DHT22;50151;52.030;5.350;2023-06-14T05:04:17;17.40;99.90
63966;DHT22;50151;52.030;5.350;2023-06-14T05:06:45;17.40;99.90
63966;DHT22;50151;52.030;5.350;2023-06-14T05:09:13;17.40;99.90
63966;DHT22;50151;52.030;5.350;2023-06-14T05:11:40;17.50;99.90
63966;DHT22;50151;52.030;5.350;2023-06-14T05:14:11;17.60;99.90
63966;DHT22;50151;52.030;5.350;2023-06-14T05:16:38;17.60;99.90
63966;DHT22;50151;52.030;5.350;2023-06-14T05:19:06;17.50;99.90
63966;DHT22;50151;52.030;5.350;2023-06-14T05:21:33;17.50;99.90
63966;DHT22;50151;52.030;5.350;2023-06-14T05:24:07;17.60;99.90
63966;DHT22;50151;52.030;5.350;2023-06-14T05:26:35;17.60;99.90
63966;DHT22;50151;52.030;5.350;2023-06-14T05:29:02;17.60;99.90
63966;DHT22;50151;52.030;5.350;2023-06-14T05:31:29;17.70;99.90
63966;DHT22;50151;52.030;5.350;2023-06-14T05:33:56;17.70;99.90
63966;DHT22;50151;52.030;5.350;2023-06-14T05:36:23;17.80;99.90
63966;DHT22;50151;52.030;5.350;2023-06-14T05:38:51;17.90;99.90
63966;DHT22;50151;52.030;5.350;2023-06-14T05:41:27;17.90;99.90
63966;DHT22;50151;52.030;5.350;2023-06-14T05:43:55;17.90;99.90
63966;DHT22;50151;52.030;5.350;2023-06-14T05:46:22;18.00;99.90
63966;DHT22;50151;52.030;5.350;2023-06-14T05:48:52;18.10;99.90
63966;DHT22;50151;52.030;5.350;2023-06-14T05:51:19;18.10;99.90
63966;DHT22;50151;52.030;5.350;2023-06-14T05:53:47;18.20;99.90
63966;DHT22;50151;52.030;5.350;2023-06-14T05:56:14;18.30;99.90
63966;DHT22;50151;52.030;5.350;2023-06-14T05:58:41;18.30;99.90
63966;DHT22;50151;52.030;5.350;2023-06-14T06:01:08;18.30;99.90
63966;DHT22;50151;52.030;5.350;2023-06-14T06:03:35;18.40;99.90
63966;DHT22;50151;52.030;5.350;2023-06-14T06:06:02;18.50;99.90
63966;DHT22;50151;52.030;5.350;2023-06-14T06:08:29;18.50;99.90
63966;DHT22;50151;52.030;5.350;2023-06-14T06:10:56;18.60;99.90
63966;DHT22;50151;52.030;5.350;2023-06-14T06:13:23;18.70;99.90
63966;DHT22;50151;52.030;5.350;2023-06-14T06:15:50;18.90;99.90
63966;DHT22;50151;52.030;5.350;2023-06-14T06:18:17;18.90;99.90
63966;DHT22;50151;52.030;5.350;2023-06-14T06:20:43;19.00;99.90
63966;DHT22;50151;52.030;5.350;2023-06-14T06:23:10;19.00;99.90
63966;DHT22;50151;52.030;5.350;2023-06-14T06:25:37;19.10;99.90
63966;DHT22;50151;52.030;5.350;2023-06-14T06:28:04;19.20;99.90
63966;DHT22;50151;52.030;5.350;2023-06-14T06:30:31;19.30;99.90
63966;DHT22;50151;52.030;5.350;2023-06-14T06:32:58;19.40;99.90
63966;DHT22;50151;52.030;5.350;2023-06-14T06:35:24;19.50;99.90
63966;DHT22;50151;52.030;5.350;2023-06-14T06:37:51;19.50;99.90
63966;DHT22;50151;52.030;5.350;2023-06-14T06:40:19;19.60;99.90
63966;DHT22;50151;52.030;5.350;2023-06-14T06:42:46;19.70;99.90
63966;DHT22;50151;52.030;5.350;2023-06-14T06:45:12;19.70;99.90
63966;DHT22;50151;52.030;5.350;2023-06-14T06:47:40;19.80;99.90
63966;DHT22;50151;52.030;5.350;2023-06-14T06:50:07;20.00;99.90
63966;DHT22;50151;52.030;5.350;2023-06-14T06:52:34;20.00;99.90
63966;DHT22;50151;52.030;5.350;2023-06-14T06:55:01;20.10;99.90
63966;DHT22;50151;52.030;5.350;2023-06-14T06:57:28;20.20;99.90
63966;DHT22;50151;52.030;5.350;2023-06-14T06:59:58;20.30;99.90
63966;DHT22;50151;52.030;5.350;2023-06-14T07:02:25;20.40;99.90
63966;DHT22;50151;52.030;5.350;2023-06-14T07:04:51;20.40;99.90
63966;DHT22;50151;52.030;5.350;2023-06-14T07:07:18;20.50;99.90
63966;DHT22;50151;52.030;5.350;2023-06-14T07:09:45;20.60;99.90
63966;DHT22;50151;52.030;5.350;2023-06-14T07:12:12;20.70;99.90
63966;DHT22;50151;52.030;5.350;2023-06-14T07:14:39;20.80;99.90
63966;DHT22;50151;52.030;5.350;2023-06-14T07:17:05;20.90;99.90
63966;DHT22;50151;52.030;5.350;2023-06-14T07:19:32;21.00;99.90
63966;DHT22;50151;52.030;5.350;2023-06-14T07:21:59;20.90;99.90
63966;DHT22;50151;52.030;5.350;2023-06-14T07:24:26;21.10;99.90
63966;DHT22;50151;52.030;5.350;2023-06-14T07:26:55;21.30;99.90
63966;DHT22;50151;52.030;5.350;2023-06-14T07:29:22;21.30;99.90
63966;DHT22;50151;52.030;5.350;2023-06-14T07:31:49;21.50;99.90
63966;DHT22;50151;52.030;5.350;2023-06-14T07:34:16;21.50;99.90
63966;DHT22;50151;52.030;5.350;2023-06-14T07:36:42;21.60;99.90
63966;DHT22;50151;52.030;5.350;2023-06-14T07:39:11;21.70;99.90
63966;DHT22;50151;52.030;5.350;2023-06-14T07:41:37;21.90;99.90
63966;DHT22;50151;52.030;5.350;2023-06-14T07:44:04;21.90;99.90
63966;DHT22;50151;52.030;5.350;2023-06-14T07:46:31;22.00;99.90
63966;DHT22;50151;52.030;5.350;2023-06-14T07:48:58;22.00;99.90
63966;DHT22;50151;52.030;5.350;2023-06-14T07:51:24;22.00;99.90
63966;DHT22;50151;52.030;5.350;2023-06-14T07:53:51;22.10;99.90
63966;DHT22;50151;52.030;5.350;2023-06-14T07:56:18;22.10;99.90
63966;DHT22;50151;52.030;5.350;2023-06-14T07:58:45;22.20;99.90
63966;DHT22;50151;52.030;5.350;2023-06-14T08:01:11;22.30;99.90
63966;DHT22;50151;52.030;5.350;2023-06-14T08:03:38;22.40;99.90
63966;DHT22;50151;52.030;5.350;2023-06-14T08:06:06;22.50;99.90
63966;DHT22;50151;52.030;5.350;2023-06-14T08:08:33;22.60;99.90
63966;DHT22;50151;52.030;5.350;2023-06-14T08:11:00;22.70;99.90
63966;DHT22;50151;52.030;5.350;2023-06-14T08:13:26;22.70;99.90
63966;DHT22;50151;52.030;5.350;2023-06-14T08:15:53;22.70;99.90
63966;DHT22;50151;52.030;5.350;2023-06-14T08:18:20;22.80;99.90
63966;DHT22;50151;52.030;5.350;2023-06-14T08:20:47;22.90;99.90
63966;DHT22;50151;52.030;5.350;2023-06-14T08:23:13;23.00;99.90
63966;DHT22;50151;52.030;5.350;2023-06-14T08:25:40;23.00;99.90
63966;DHT22;50151;52.030;5.350;2023-06-14T08:28:07;23.20;99.90
63966;DHT22;50151;52.030;5.350;2023-06-14T08:30:33;23.20;99.90
63966;DHT22;50151;52.030;5.350;2023-06-14T08:33:00;23.30;99.90
63966;DHT22;50151;52.030;5.350;2023-06-14T08:35:42;23.50;99.90
63966;DHT22;50151;52.030;5.350;2023-06-14T08:38:10;23.60;99.90
63966;DHT22;50151;52.030;5.350;2023-06-14T08:40:39;23.40;99.90
63966;DHT22;50151;52.030;5.350;2023-06-14T08:43:08;23.60;99.90
63966;DHT22;50151;52.030;5.350;2023-06-14T08:45:35;23.80;99.90
63966;DHT22;50151;52.030;5.350;2023-06-14T08:48:02;23.80;99.90
63966;DHT22;50151;52.030;5.350;2023-06-14T08:50:30;23.80;99.90
63966;DHT22;50151;52.030;5.350;2023-06-14T08:53:01;23.90;99.90
63966;DHT22;50151;52.030;5.350;2023-06-14T08:55:31;23.90;99.90
63966;DHT22;50151;52.030;5.350;2023-06-14T08:58:03;24.10;99.90
63966;DHT22;50151;52.030;5.350;2023-06-14T09:00:31;24.20;99.90
63966;DHT22;50151;52.030;5.350;2023-06-14T09:03:00;24.30;99.90
63966;DHT22;50151;52.030;5.350;2023-06-14T09:05:28;24.50;99.90
63966;DHT22;50151;52.030;5.350;2023-06-14T09:07:55;24.30;99.90
63966;DHT22;50151;52.030;5.350;2023-06-14T09:10:31;24.40;99.90
63966;DHT22;50151;52.030;5.350;2023-06-14T09:13:01;24.30;99.90
63966;DHT22;50151;52.030;5.350;2023-06-14T09:15:29;24.50;99.90
63966;DHT22;50151;52.030;5.350;2023-06-14T09:17:56;24.60;99.90
63966;DHT22;50151;52.030;5.350;2023-06-14T09:20:24;24.60;99.90
63966;DHT22;50151;52.030;5.350;2023-06-14T09:22:53;24.40;99.90
63966;DHT22;50151;52.030;5.350;2023-06-14T09:25:19;24.60;99.90
63966;DHT22;50151;52.030;5.350;2023-06-14T09:28:07;24.60;99.90
63966;DHT22;50151;52.030;5.350;2023-06-14T09:30:36;24.70;99.90
63966;DHT22;50151;52.030;5.350;2023-06-14T09:33:03;24.90;99.90
63966;DHT22;50151;52.030;5.350;2023-06-14T09:35:34;24.90;99.90
63966;DHT22;50151;52.030;5.350;2023-06-14T09:38:01;24.90;99.90
63966;DHT22;50151;52.030;5.350;2023-06-14T09:40:28;24.90;99.90
63966;DHT22;50151;52.030;5.350;2023-06-14T09:42:54;24.80;99.90
63966;DHT22;50151;52.030;5.350;2023-06-14T09:45:25;25.00;99.90
63966;DHT22;50151;52.030;5.350;2023-06-14T09:47:56;25.00;99.90
63966;DHT22;50151;52.030;5.350;2023-06-14T09:50:33;25.10;99.90
63966;DHT22;50151;52.030;5.350;2023-06-14T09:53:11;25.30;99.90
63966;DHT22;50151;52.030;5.350;2023-06-14T09:55:41;25.50;99.90
63966;DHT22;50151;52.030;5.350;2023-06-14T09:58:09;25.60;99.90
63966;DHT22;50151;52.030;5.350;2023-06-14T10:00:36;25.50;99.90
63966;DHT22;50151;52.030;5.350;2023-06-14T10:03:13;25.50;99.90
63966;DHT22;50151;52.030;5.350;2023-06-14T10:05:43;25.70;99.90
63966;DHT22;50151;52.030;5.350;2023-06-14T10:08:14;25.60;99.90
63966;DHT22;50151;52.030;5.350;2023-06-14T10:10:43;25.80;99.90
63966;DHT22;50151;52.030;5.350;2023-06-14T10:13:11;26.00;99.90
63966;DHT22;50151;52.030;5.350;2023-06-14T10:19:03;26.00;99.90
63966;DHT22;50151;52.030;5.350;2023-06-14T10:21:21;26.00;99.90
63966;DHT22;50151;52.030;5.350;2023-06-14T10:23:50;26.00;99.90
63966;DHT22;50151;52.030;5.350;2023-06-14T10:26:22;26.10;99.90
63966;DHT22;50151;52.030;5.350;2023-06-14T10:29:01;26.20;99.90
63966;DHT22;50151;52.030;5.350;2023-06-14T10:31:49;26.00;99.90
63966;DHT22;50151;52.030;5.350;2023-06-14T10:34:24;26.20;99.90
63966;DHT22;50151;52.030;5.350;2023-06-14T10:37:11;26.30;99.90
63966;DHT22;50151;52.030;5.350;2023-06-14T10:39:47;26.70;99.90
63966;DHT22;50151;52.030;5.350;2023-06-14T10:42:14;27.00;99.90
63966;DHT22;50151;52.030;5.350;2023-06-14T10:44:55;26.60;99.90
63966;DHT22;50151;52.030;5.350;2023-06-14T10:47:33;26.30;99.90
63966;DHT22;50151;52.030;5.350;2023-06-14T10:50:06;26.50;99.90
63966;DHT22;50151;52.030;5.350;2023-06-14T10:52:38;26.60;99.90
63966;DHT22;50151;52.030;5.350;2023-06-14T10:55:10;26.90;99.90
63966;DHT22;50151;52.030;5.350;2023-06-14T10:57:41;26.80;99.90
63966;DHT22;50151;52.030;5.350;2023-06-14T11:00:12;26.90;99.90
63966;DHT22;50151;52.030;5.350;2023-06-14T11:03:24;27.00;99.90
63966;DHT22;50151;52.030;5.350;2023-06-14T11:05:58;27.10;99.90
63966;DHT22;50151;52.030;5.350;2023-06-14T11:11:08;27.30;99.90
63966;DHT22;50151;52.030;5.350;2023-06-14T11:13:38;27.20;99.90
63966;DHT22;50151;52.030;5.350;2023-06-14T11:16:15;27.60;99.90
63966;DHT22;50151;52.030;5.350;2023-06-14T11:18:43;27.30;99.90
63966;DHT22;50151;52.030;5.350;2023-06-14T11:21:10;27.40;99.90
63966;DHT22;50151;52.030;5.350;2023-06-14T11:23:37;27.30;99.90
63966;DHT22;50151;52.030;5.350;2023-06-14T11:26:04;27.70;99.90
63966;DHT22;50151;52.030;5.350;2023-06-14T11:28:40;27.60;99.90
63966;DHT22;50151;52.030;5.350;2023-06-14T11:31:08;27.50;99.90
63966;DHT22;50151;52.030;5.350;2023-06-14T11:33:36;27.80;99.90
63966;DHT22;50151;52.030;5.350;2023-06-14T11:36:03;27.90;99.90
63966;DHT22;50151;52.030;5.350;2023-06-14T11:38:35;27.70;99.90
63966;DHT22;50151;52.030;5.350;2023-06-14T11:41:03;27.80;99.90
63966;DHT22;50151;52.030;5.350;2023-06-14T11:43:30;27.60;99.90
63966;DHT22;50151;52.030;5.350;2023-06-14T11:45:59;27.80;99.90
63966;DHT22;50151;52.030;5.350;2023-06-14T11:48:42;27.70;99.90
63966;DHT22;50151;52.030;5.350;2023-06-14T11:51:09;28.00;99.90
63966;DHT22;50151;52.030;5.350;2023-06-14T11:53:36;28.20;99.90
63966;DHT22;50151;52.030;5.350;2023-06-14T11:56:03;28.30;99.90
63966;DHT22;50151;52.030;5.350;2023-06-14T11:58:30;28.30;99.90
63966;DHT22;50151;52.030;5.350;2023-06-14T12:00:57;28.20;99.90
63966;DHT22;50151;52.030;5.350;2023-06-14T12:03:25;28.00;99.90
63966;DHT22;50151;52.030;5.350;2023-06-14T12:06:06;28.00;99.90
63966;DHT22;50151;52.030;5.350;2023-06-14T12:08:38;28.10;99.90
63966;DHT22;50151;52.030;5.350;2023-06-14T12:11:10;28.60;99.90
63966;DHT22;50151;52.030;5.350;2023-06-14T12:13:41;28.80;99.90
63966;DHT22;50151;52.030;5.350;2023-06-14T12:16:08;28.70;99.90
63966;DHT22;50151;52.030;5.350;2023-06-14T12:18:37;29.00;99.90
63966;DHT22;50151;52.030;5.350;2023-06-14T12:21:05;29.10;99.90
63966;DHT22;50151;52.030;5.350;2023-06-14T12:23:49;28.60;99.90
63966;DHT22;50151;52.030;5.350;2023-06-14T12:26:18;28.20;99.90
63966;DHT22;50151;52.030;5.350;2023-06-14T12:28:46;28.50;99.90
63966;DHT22;50151;52.030;5.350;2023-06-14T12:31:15;29.00;99.90
63966;DHT22;50151;52.030;5.350;2023-06-14T12:33:42;28.90;99.90
63966;DHT22;50151;52.030;5.350;2023-06-14T12:36:10;28.90;99.90
63966;DHT22;50151;52.030;5.350;2023-06-14T12:38:37;29.00;99.90
63966;DHT22;50151;52.030;5.350;2023-06-14T12:41:04;29.00;99.90
63966;DHT22;50151;52.030;5.350;2023-06-14T12:43:31;29.30;99.90
63966;DHT22;50151;52.030;5.350;2023-06-14T12:45:58;29.10;99.90
63966;DHT22;50151;52.030;5.350;2023-06-14T12:48:25;28.70;99.90
63966;DHT22;50151;52.030;5.350;2023-06-14T12:50:53;29.30;99.90
63966;DHT22;50151;52.030;5.350;2023-06-14T12:53:20;29.10;99.90
63966;DHT22;50151;52.030;5.350;2023-06-14T12:55:47;29.30;99.90
63966;DHT22;50151;52.030;5.350;2023-06-14T12:58:14;29.70;99.90
63966;DHT22;50151;52.030;5.350;2023-06-14T13:00:43;29.80;99.90
63966;DHT22;50151;52.030;5.350;2023-06-14T13:03:10;29.70;99.90
63966;DHT22;50151;52.030;5.350;2023-06-14T13:05:37;29.70;99.90
63966;DHT22;50151;52.030;5.350;2023-06-14T13:08:07;30.30;99.90
63966;DHT22;50151;52.030;5.350;2023-06-14T13:10:37;30.30;99.90
63966;DHT22;50151;52.030;5.350;2023-06-14T13:13:04;29.80;99.90
63966;DHT22;50151;52.030;5.350;2023-06-14T13:15:31;30.20;99.90
63966;DHT22;50151;52.030;5.350;2023-06-14T13:17:58;30.20;99.90
63966;DHT22;50151;52.030;5.350;2023-06-14T13:20:25;30.40;99.90
63966;DHT22;50151;52.030;5.350;2023-06-14T13:22:51;30.30;99.90
63966;DHT22;50151;52.030;5.350;2023-06-14T13:25:18;30.30;99.90
63966;DHT22;50151;52.030;5.350;2023-06-14T13:27:45;30.70;99.90
63966;DHT22;50151;52.030;5.350;2023-06-14T13:30:12;31.10;99.90
63966;DHT22;50151;52.030;5.350;2023-06-14T13:32:40;30.30;99.90
63966;DHT22;50151;52.030;5.350;2023-06-14T13:35:06;30.70;99.90
63966;DHT22;50151;52.030;5.350;2023-06-14T13:37:33;31.30;99.90
63966;DHT22;50151;52.030;5.350;2023-06-14T13:40:00;31.10;99.90
63966;DHT22;50151;52.030;5.350;2023-06-14T13:42:27;31.10;99.90
63966;DHT22;50151;52.030;5.350;2023-06-14T13:44:55;31.00;99.90
63966;DHT22;50151;52.030;5.350;2023-06-14T13:47:22;31.40;99.90
63966;DHT22;50151;52.030;5.350;2023-06-14T13:49:48;31.20;99.90
63966;DHT22;50151;52.030;5.350;2023-06-14T13:52:15;31.30;99.90
63966;DHT22;50151;52.030;5.350;2023-06-14T13:54:42;31.50;99.90
63966;DHT22;50151;52.030;5.350;2023-06-14T13:57:10;31.60;99.90
63966;DHT22;50151;52.030;5.350;2023-06-14T13:59:40;31.60;99.90
63966;DHT22;50151;52.030;5.350;2023-06-14T14:02:07;31.60;99.90
63966;DHT22;50151;52.030;5.350;2023-06-14T14:04:34;31.70;99.90
63966;DHT22;50151;52.030;5.350;2023-06-14T14:07:03;31.40;99.90
63966;DHT22;50151;52.030;5.350;2023-06-14T14:09:30;31.70;99.90
63966;DHT22;50151;52.030;5.350;2023-06-14T14:11:58;32.00;99.90
63966;DHT22;50151;52.030;5.350;2023-06-14T14:14:25;31.70;99.90
63966;DHT22;50151;52.030;5.350;2023-06-14T14:16:52;31.90;99.90
63966;DHT22;50151;52.030;5.350;2023-06-14T14:19:21;31.40;99.90
63966;DHT22;50151;52.030;5.350;2023-06-14T14:21:48;31.70;99.90
63966;DHT22;50151;52.030;5.350;2023-06-14T14:24:15;31.60;99.90
63966;DHT22;50151;52.030;5.350;2023-06-14T14:26:42;31.80;99.90
63966;DHT22;50151;52.030;5.350;2023-06-14T14:29:09;32.10;99.90
63966;DHT22;50151;52.030;5.350;2023-06-14T14:31:38;32.10;99.90
63966;DHT22;50151;52.030;5.350;2023-06-14T14:34:04;32.00;99.90
63966;DHT22;50151;52.030;5.350;2023-06-14T14:36:31;31.70;99.90
63966;DHT22;50151;52.030;5.350;2023-06-14T14:39:01;31.90;99.90
63966;DHT22;50151;52.030;5.350;2023-06-14T14:41:27;31.70;99.90
63966;DHT22;50151;52.030;5.350;2023-06-14T14:43:54;31.30;99.90
63966;DHT22;50151;52.030;5.350;2023-06-14T14:46:21;30.90;99.90
63966;DHT22;50151;52.030;5.350;2023-06-14T14:48:48;30.60;99.90
63966;DHT22;50151;52.030;5.350;2023-06-14T14:51:14;30.60;99.90
63966;DHT22;50151;52.030;5.350;2023-06-14T14:53:41;30.20;99.90
63966;DHT22;50151;52.030;5.350;2023-06-14T14:56:08;30.10;99.90
63966;DHT22;50151;52.030;5.350;2023-06-14T14:58:35;30.50;99.90
63966;DHT22;50151;52.030;5.350;2023-06-14T15:01:02;30.30;99.90
63966;DHT22;50151;52.030;5.350;2023-06-14T15:03:28;30.20;99.90
63966;DHT22;50151;52.030;5.350;2023-06-14T15:05:56;30.20;99.90
63966;DHT22;50151;52.030;5.350;2023-06-14T15:08:22;30.20;99.90
63966;DHT22;50151;52.030;5.350;2023-06-14T15:10:49;29.80;99.90
63966;DHT22;50151;52.030;5.350;2023-06-14T15:13:16;29.80;99.90
63966;DHT22;50151;52.030;5.350;2023-06-14T15:15:43;29.90;99.90
63966;DHT22;50151;52.030;5.350;2023-06-14T15:18:09;30.30;99.90
63966;DHT22;50151;52.030;5.350;2023-06-14T15:20:36;30.00;99.90
63966;DHT22;50151;52.030;5.350;2023-06-14T15:23:03;29.80;99.90
63966;DHT22;50151;52.030;5.350;2023-06-14T15:25:30;29.70;99.90
63966;DHT22;50151;52.030;5.350;2023-06-14T15:27:58;29.60;99.90
63966;DHT22;50151;52.030;5.350;2023-06-14T15:30:25;29.70;99.90
63966;DHT22;50151;52.030;5.350;2023-06-14T15:32:51;29.50;99.90
63966;DHT22;50151;52.030;5.350;2023-06-14T15:35:18;29.50;99.90
63966;DHT22;50151;52.030;5.350;2023-06-14T15:37:47;29.30;99.90
63966;DHT22;50151;52.030;5.350;2023-06-14T15:40:15;29.50;99.90
63966;DHT22;50151;52.030;5.350;2023-06-14T15:42:42;29.50;99.90
63966;DHT22;50151;52.030;5.350;2023-06-14T15:45:09;29.40;99.90